Etusivu
METAR-TAF:

METAR-TAF

Lentoasemat :

Chicago Executive Airport

Wheeling / Prospect Heights, Illinois, Yhdysvallat

Leveyspiiri: 42-07-15N, Pituuspiiri: 087-54-17W, korkeus merenpinnasta: 197 m

Tämänhetkinen sää

Tämä raportti tehtiin 52 minuuttia sitten, kello 13.52 UTC
Tuuli 8 kn etelästä
Lämpötila 11°C
Kosteus 66%
Ilmanpaine 1011 hPa
Näkyvyys: 16.1 km
selkeää

METAR: KPWK 191352Z 17008KT 10SM CLR 11/05 A2986 RMK AO2 SLP114 T01110050

Aika: 09:44 (14:44 UTC)


TAF: puuttuu

Säähavainnot ja -ennusteet yli 4000 lentoasemalta (METAR- ja TAF-raportit).

Käytössä olevat sääasemat on merkitty karttaan keltaisilla ja punaisilla pisteillä.

Aseta hiiri pisteen päälle nähdäksesi sääaseman nimen.

Klikkaa sitten nähdäksesi säähavainnot ja -ennusteet.

Kartan vaihtaminen: klikkaa mustalla rastilla varustettuja vihreitä pisteitä, niin voit zoomata sisään; viivalla varustettua vihreää pistettä, niin voit zoomata ulos tai vihreitä nuolia, niin pääset viereisille kartoille.


METAR-TAF: